TimeAKDT,TemperatureF,Dew PointF,Humidity,Sea Level PressureIn,VisibilityMPH,Wind Direction,Wind SpeedMPH,Gust SpeedMPH,PrecipitationIn,Events,Conditions,WindDirDegrees,DateUTC
12:55 AM,58.3,49.1,71,29.70,10.0,Calm,Calm,-,N/A,,Clear,0,2013-08-03 08:55:00
1:55 AM,56.7,47.1,70,29.70,10.0,Calm,Calm,-,N/A,,Clear,0,2013-08-03 09:55:00
2:55 AM,55.9,46.9,72,29.68,10.0,Calm,Calm,-,N/A,,Clear,0,2013-08-03 10:55:00
3:55 AM,55.4,44.6,67,29.68,10.0,Calm,Calm,-,N/A,,Clear,0,2013-08-03 11:55:00
4:55 AM,53.1,45.3,75,29.67,10.0,Calm,Calm,-,N/A,,Clear,0,2013-08-03 12:55:00
5:55 AM,54.7,42.6,64,29.67,10.0,West,10.4,-,N/A,,Clear,260,2013-08-03 13:55:00
6:55 AM,56.1,47.1,72,29.66,10.0,Calm,Calm,-,N/A,,Clear,0,2013-08-03 14:55:00
7:55 AM,57.2,48.4,72,29.64,10.0,Calm,Calm,-,N/A,,Clear,0,2013-08-03 15:55:00
8:55 AM,59.0,50.0,72,29.66,10.0,Calm,Calm,-,N/A,,Scattered Clouds,0,2013-08-03 16:55:00
9:55 AM,61.3,52.0,71,29.67,10.0,Calm,Calm,-,N/A,,Clear,0,2013-08-03 17:55:00
10:55 AM,66.4,50.5,57,29.67,10.0,Calm,Calm,-,N/A,,Mostly Cloudy,0,2013-08-03 18:55:00
11:55 AM,70.0,48.6,46,29.67,10.0,Variable,3.5,-,N/A,,Scattered Clouds,0,2013-08-03 19:55:00
12:55 PM,76.5,41.4,28,29.68,10.0,SE,13.8,-,N/A,,Clear,130,2013-08-03 20:55:00
1:55 PM,79.3,42.4,27,29.67,10.0,ESE,12.7,-,N/A,,Clear,120,2013-08-03 21:55:00
2:55 PM,81.0,42.3,25,29.66,10.0,Variable,6.9,-,N/A,,Mostly Cloudy,0,2013-08-03 22:55:00
3:55 PM,81.5,42.3,25,29.64,10.0,Variable,6.9,-,N/A,,Clear,0,2013-08-03 23:55:00
4:55 PM,82.2,44.2,26,29.63,10.0,Variable,5.8,-,N/A,,Clear,0,2013-08-04 00:55:00
5:55 PM,78.1,45.7,32,29.63,10.0,Variable,5.8,-,N/A,,Scattered Clouds,0,2013-08-04 01:55:00
6:55 PM,74.5,48.2,39,29.66,10.0,WSW,11.5,27.6,0.00,,Scattered Clouds,250,2013-08-04 02:55:00
7:55 PM,70.9,47.7,44,29.68,10.0,Calm,Calm,-,N/A,,Mostly Cloudy,0,2013-08-04 03:55:00
8:55 PM,70.9,48.4,45,29.69,10.0,Calm,Calm,-,N/A,,Scattered Clouds,0,2013-08-04 04:55:00
9:55 PM,68.4,49.5,51,29.70,10.0,Variable,3.5,-,N/A,,Mostly Cloudy,0,2013-08-04 05:55:00
10:55 PM,66.6,52.2,60,29.71,10.0,Calm,Calm,-,N/A,,Overcast,0,2013-08-04 06:55:00
11:55 PM,63.5,53.2,69,29.73,10.0,Calm,Calm,-,0.00,,Overcast,0,2013-08-04 07:55:00